createdAt,value
2023-01-17T00:01:41.833Z,2.42
2023-01-17T00:04:27.111Z,2.53
2023-01-17T00:07:12.353Z,4.22
2023-01-17T00:09:54.212Z,1.92
2023-01-17T00:12:21.708Z,5.03
2023-01-17T00:14:48.775Z,1.95
2023-01-17T00:17:15.422Z,2.28
2023-01-17T00:20:00.910Z,2.55
2023-01-17T00:22:47.915Z,3.65
2023-01-17T00:25:38.288Z,3.85
2023-01-17T00:28:05.846Z,2.38
2023-01-17T00:30:33.063Z,4.47
2023-01-17T00:32:59.798Z,2.22
2023-01-17T00:35:28.013Z,3.88
2023-01-17T00:38:22.448Z,3.72
2023-01-17T00:40:49.967Z,3.85
2023-01-17T00:43:37.381Z,3.63
2023-01-17T00:46:23.175Z,2.72
2023-01-17T00:49:08.537Z,2.90
2023-01-17T00:51:54.301Z,3.05
2023-01-17T00:54:39.704Z,3.25
2023-01-17T00:57:26.001Z,4.70
2023-01-17T01:00:11.329Z,2.88
2023-01-17T01:02:57.171Z,2.30
2023-01-17T01:05:42.296Z,4.40
2023-01-17T01:08:45.063Z,2.80
2023-01-17T01:11:36.573Z,3.92
2023-01-17T01:14:23.022Z,3.70
2023-01-17T01:17:08.765Z,2.10
2023-01-17T01:19:53.954Z,2.83
2023-01-17T01:22:39.198Z,3.40
2023-01-17T01:25:24.589Z,3.63
2023-01-17T01:28:21.394Z,3.33
2023-01-17T01:31:06.791Z,3.22
2023-01-17T01:33:36.728Z,2.38
2023-01-17T01:36:03.416Z,4.05
2023-01-17T01:38:29.998Z,3.55
2023-01-17T01:40:56.985Z,2.97
2023-01-17T01:43:45.803Z,2.55
2023-01-17T01:46:16.419Z,3.35
2023-01-17T01:48:55.572Z,3.70
2023-01-17T01:51:29.774Z,3.25
2023-01-17T01:54:08.273Z,3.08
2023-01-17T01:56:38.348Z,3.00
2023-01-17T01:59:07.993Z,2.65
2023-01-17T02:01:35.523Z,4.00
2023-01-17T02:04:02.985Z,2.95
2023-01-17T02:06:34.200Z,2.78
2023-01-17T02:09:05.283Z,2.47
2023-01-17T02:11:32.480Z,5.07
2023-01-17T02:13:59.261Z,3.45
2023-01-17T02:17:02.902Z,4.75
2023-01-17T02:19:57.934Z,3.78
2023-01-17T02:22:42.879Z,3.58
2023-01-17T02:25:24.636Z,4.18
2023-01-17T02:28:08.244Z,2.67
2023-01-17T02:30:39.974Z,2.97
2023-01-17T02:33:17.253Z,4.47
2023-01-17T02:36:14.921Z,2.95
2023-01-17T02:38:52.711Z,2.90
2023-01-17T02:41:31.373Z,2.47
2023-01-17T02:43:58.151Z,2.03
2023-01-17T02:46:24.887Z,2.25
2023-01-17T02:48:51.855Z,2.42
2023-01-17T02:51:50.297Z,3.08
2023-01-17T02:54:35.228Z,3.00
2023-01-17T02:57:17.163Z,1.85
2023-01-17T02:59:54.101Z,2.35
2023-01-17T03:02:26.896Z,2.13
2023-01-17T03:05:01.863Z,3.47
2023-01-17T03:07:29.724Z,3.25
2023-01-17T03:10:00.832Z,2.25
2023-01-17T03:12:32.462Z,2.28
2023-01-17T03:14:59.309Z,1.55
2023-01-17T03:17:30.493Z,1.42
2023-01-17T03:19:57.254Z,1.67
2023-01-17T03:22:24.135Z,1.33
2023-01-17T03:24:50.974Z,2.13
2023-01-17T03:27:17.683Z,2.63
2023-01-17T03:29:44.277Z,1.20
2023-01-17T03:32:10.882Z,1.30
2023-01-17T03:34:37.528Z,3.30
2023-01-17T03:37:04.162Z,1.33
2023-01-17T03:39:31.152Z,1.17
2023-01-17T03:42:00.953Z,1.42
2023-01-17T03:44:27.570Z,1.25
2023-01-17T03:46:54.292Z,2.25
2023-01-17T03:49:24.005Z,1.55
2023-01-17T03:51:50.752Z,1.65
2023-01-17T03:54:17.521Z,3.17
2023-01-17T03:56:44.200Z,1.10
2023-01-17T03:59:13.036Z,4.30
2023-01-17T04:01:40.040Z,1.58
2023-01-17T04:04:06.730Z,1.63
2023-01-17T04:06:33.339Z,1.23
2023-01-17T04:09:00.516Z,2.95
2023-01-17T04:11:27.267Z,1.20
2023-01-17T04:13:55.328Z,1.08
2023-01-17T04:16:27.994Z,0.73
2023-01-17T04:18:54.887Z,0.80
2023-01-17T04:21:21.584Z,1.00
2023-01-17T04:23:48.251Z,0.82
2023-01-17T04:26:14.868Z,2.53
2023-01-17T04:28:41.548Z,1.17
2023-01-17T04:31:12.413Z,0.50
2023-01-17T04:33:39.061Z,0.90
2023-01-17T04:36:06.856Z,0.43
2023-01-17T04:38:33.478Z,0.60
2023-01-17T04:41:00.139Z,0.77
2023-01-17T04:43:26.775Z,0.68
2023-01-17T04:45:57.483Z,1.48
2023-01-17T04:48:24.628Z,0.30
2023-01-17T04:50:51.358Z,0.40
2023-01-17T04:53:18.088Z,0.75
2023-01-17T04:55:47.874Z,0.60
2023-01-17T04:58:14.518Z,1.02
2023-01-17T05:00:41.199Z,0.88
2023-01-17T05:03:07.988Z,0.77
2023-01-17T05:05:34.792Z,1.02
2023-01-17T05:08:01.544Z,0.40
2023-01-17T05:10:28.266Z,0.90
2023-01-17T05:12:59.420Z,0.63
2023-01-17T05:15:27.154Z,0.93
2023-01-17T05:17:54.341Z,0.68
2023-01-17T05:20:22.313Z,0.70
2023-01-17T05:22:56.327Z,0.55
2023-01-17T05:25:24.913Z,0.68
2023-01-17T05:27:52.063Z,0.60
2023-01-17T05:30:19.377Z,0.90
2023-01-17T05:32:49.725Z,1.45
2023-01-17T05:35:20.468Z,0.80
2023-01-17T05:37:49.394Z,0.80
2023-01-17T05:40:16.859Z,0.50
2023-01-17T05:42:51.041Z,0.68
2023-01-17T05:45:18.723Z,0.63
2023-01-17T05:47:50.589Z,0.77
2023-01-17T05:50:19.652Z,0.82
2023-01-17T05:52:54.022Z,1.20
2023-01-17T05:55:21.487Z,0.60
2023-01-17T05:57:48.312Z,0.88
2023-01-17T06:00:18.551Z,1.52
2023-01-17T06:02:45.655Z,0.65
2023-01-17T06:05:12.786Z,1.15
2023-01-17T06:07:39.549Z,0.80
2023-01-17T06:10:06.752Z,1.10
2023-01-17T06:12:33.438Z,1.20
2023-01-17T06:15:00.126Z,0.85
2023-01-17T06:17:26.921Z,0.75
2023-01-17T06:19:53.708Z,1.88
2023-01-17T06:22:20.575Z,0.90
2023-01-17T06:24:47.326Z,0.70
2023-01-17T06:27:13.982Z,1.33
2023-01-17T06:29:40.769Z,0.90
2023-01-17T06:32:07.440Z,0.70
2023-01-17T06:34:34.045Z,1.02
2023-01-17T06:37:00.709Z,0.85
2023-01-17T06:39:30.474Z,1.55
2023-01-17T06:41:57.226Z,1.23
2023-01-17T06:44:23.870Z,1.10
2023-01-17T06:46:50.521Z,1.88
2023-01-17T06:49:17.189Z,1.63
2023-01-17T06:51:44.019Z,1.48
2023-01-17T06:54:11.276Z,1.52
2023-01-17T06:56:38.033Z,1.55
2023-01-17T06:59:05.381Z,1.20
2023-01-17T07:01:32.333Z,1.52
2023-01-17T07:03:59.187Z,1.58
2023-01-17T07:06:28.860Z,2.05
2023-01-17T07:08:56.599Z,1.60
2023-01-17T07:11:23.884Z,1.42
2023-01-17T07:13:50.640Z,1.13
2023-01-17T07:16:17.402Z,1.27
2023-01-17T07:18:44.289Z,1.45
2023-01-17T07:21:15.311Z,1.55
2023-01-17T07:23:42.023Z,1.30
2023-01-17T07:26:08.753Z,1.40
2023-01-17T07:28:35.467Z,2.75
2023-01-17T07:31:07.139Z,1.23
2023-01-17T07:33:33.999Z,1.20
2023-01-17T07:36:06.353Z,1.55
2023-01-17T07:38:33.283Z,1.20
2023-01-17T07:41:00.560Z,1.75
2023-01-17T07:43:27.395Z,2.05
2023-01-17T07:45:53.997Z,1.70
2023-01-17T07:48:23.757Z,2.53
2023-01-17T07:50:58.116Z,2.05
2023-01-17T07:53:30.275Z,1.88
2023-01-17T07:56:01.678Z,1.83
2023-01-17T07:58:28.634Z,3.25
2023-01-17T08:00:55.596Z,1.40
2023-01-17T08:03:22.348Z,1.88
2023-01-17T08:05:56.305Z,1.58
2023-01-17T08:08:23.160Z,1.10
2023-01-17T08:10:51.645Z,1.40
2023-01-17T08:13:18.378Z,2.95
2023-01-17T08:15:48.373Z,1.70
2023-01-17T08:18:15.430Z,2.13
2023-01-17T08:20:44.400Z,1.20
2023-01-17T08:23:11.718Z,1.05
2023-01-17T08:25:39.379Z,2.15
2023-01-17T08:28:06.449Z,1.65
2023-01-17T08:30:33.324Z,1.20
2023-01-17T08:33:00.599Z,1.60
2023-01-17T08:35:28.072Z,1.08
2023-01-17T08:37:55.785Z,1.50
2023-01-17T08:40:22.971Z,2.90
2023-01-17T08:42:57.019Z,1.52
2023-01-17T08:45:23.993Z,1.13
2023-01-17T08:47:50.932Z,1.73
2023-01-17T08:50:20.955Z,1.63
2023-01-17T08:52:51.004Z,4.53
2023-01-17T08:55:18.283Z,3.38
2023-01-17T08:57:45.107Z,17.02
2023-01-17T09:00:12.206Z,4.75
2023-01-17T09:02:38.957Z,2.78
2023-01-17T09:05:07.414Z,1.75
2023-01-17T09:07:34.090Z,2.35
2023-01-17T09:10:00.919Z,1.92
2023-01-17T09:12:32.382Z,3.30
2023-01-17T09:15:03.310Z,1.15
2023-01-17T09:17:30.085Z,0.88
2023-01-17T09:19:56.885Z,0.88
2023-01-17T09:22:23.983Z,1.67
2023-01-17T09:24:50.598Z,1.45
2023-01-17T09:27:17.365Z,2.60
2023-01-17T09:29:44.018Z,2.13
2023-01-17T09:32:11.364Z,2.40
2023-01-17T09:34:38.076Z,4.50
2023-01-17T09:37:04.970Z,2.03
2023-01-17T09:39:31.570Z,0.32
2023-01-17T09:42:12.681Z,0.80
2023-01-17T09:44:43.189Z,0.45
2023-01-17T09:47:20.372Z,0.40
2023-01-17T09:49:50.373Z,1.67
2023-01-17T09:52:19.123Z,1.20
2023-01-17T09:54:48.444Z,0.60
2023-01-17T09:57:38.490Z,2.17
2023-01-17T10:00:31.369Z,0.85
2023-01-17T10:03:29.057Z,0.38
2023-01-17T10:06:03.947Z,1.52
2023-01-17T10:09:03.879Z,1.02
2023-01-17T10:11:54.597Z,2.30
2023-01-17T10:15:03.236Z,1.48
2023-01-17T10:17:44.655Z,2.35
2023-01-17T10:20:40.028Z,0.52
2023-01-17T10:23:22.215Z,0.82
2023-01-17T10:25:50.062Z,0.80
2023-01-17T10:28:23.971Z,0.47
2023-01-17T10:30:52.745Z,0.32
2023-01-17T10:33:22.120Z,0.90
2023-01-17T10:35:57.124Z,0.60
2023-01-17T10:38:31.391Z,0.80
2023-01-17T10:41:02.917Z,1.33
2023-01-17T10:43:39.510Z,2.05
2023-01-17T10:46:11.385Z,1.42
2023-01-17T10:48:46.442Z,0.70
2023-01-17T10:51:29.189Z,1.25
2023-01-17T10:54:02.058Z,2.47
2023-01-17T10:56:30.015Z,0.75
2023-01-17T10:59:26.481Z,1.52
2023-01-17T11:01:53.399Z,2.38
2023-01-17T11:04:22.753Z,0.65
2023-01-17T11:07:12.525Z,1.42
2023-01-17T11:09:45.460Z,1.33
2023-01-17T11:12:35.070Z,0.63
2023-01-17T11:15:10.895Z,1.33
2023-01-17T11:17:53.303Z,1.40
2023-01-17T11:20:38.747Z,1.55
2023-01-17T11:23:17.198Z,1.85
2023-01-17T11:26:04.878Z,2.92
2023-01-17T11:28:36.177Z,2.05
2023-01-17T11:31:08.107Z,1.77
2023-01-17T11:33:55.884Z,1.17
2023-01-17T11:36:28.295Z,2.35
2023-01-17T11:39:02.969Z,1.55
2023-01-17T11:41:38.236Z,4.80
2023-01-17T11:44:26.921Z,5.20
2023-01-17T11:47:23.173Z,4.82
2023-01-17T11:49:50.195Z,2.47
2023-01-17T11:52:34.454Z,2.72
2023-01-17T11:55:01.244Z,3.92
2023-01-17T11:57:30.170Z,4.18
2023-01-17T12:00:14.702Z,1.67
2023-01-17T12:02:50.795Z,1.85
2023-01-17T12:05:55.135Z,1.95
2023-01-17T12:09:10.013Z,65.10
2023-01-17T12:12:08.016Z,6.65
2023-01-17T12:14:53.623Z,4.85
2023-01-17T12:17:52.633Z,1.02
2023-01-17T12:20:30.463Z,3.08
2023-01-17T12:23:33.727Z,2.47
2023-01-17T12:26:27.694Z,2.88
2023-01-17T12:29:20.023Z,2.15
2023-01-17T12:32:05.458Z,3.50
2023-01-17T12:34:38.909Z,4.68
2023-01-17T12:37:21.098Z,1.02
2023-01-17T12:40:13.224Z,1.83
2023-01-17T12:42:44.707Z,1.48
2023-01-17T12:45:21.589Z,2.15
2023-01-17T12:47:54.676Z,1.38
2023-01-17T12:50:41.304Z,2.42
2023-01-17T12:53:28.131Z,3.15
2023-01-17T12:56:09.816Z,1.75
2023-01-17T12:58:41.925Z,0.98
2023-01-17T13:01:22.192Z,3.15
2023-01-17T13:04:17.975Z,2.38
2023-01-17T13:06:44.612Z,3.65
2023-01-17T13:09:14.220Z,3.78
2023-01-17T13:11:46.684Z,1.02
2023-01-17T13:14:13.349Z,3.15
2023-01-17T13:17:13.748Z,2.45
2023-01-17T13:19:48.892Z,3.22
2023-01-17T13:22:18.643Z,2.78
2023-01-17T13:25:13.105Z,2.72
2023-01-17T13:27:57.007Z,4.78
2023-01-17T13:30:51.725Z,2.15
2023-01-17T13:33:36.705Z,1.55
2023-01-17T13:36:44.356Z,0.95
2023-01-17T13:39:41.977Z,2.53
2023-01-17T13:42:13.939Z,3.38
2023-01-17T13:44:40.739Z,3.65
2023-01-17T13:47:27.782Z,4.18
2023-01-17T13:49:56.791Z,3.97
2023-01-17T13:52:26.492Z,4.00
2023-01-17T13:55:01.294Z,5.32
2023-01-17T13:57:32.931Z,2.30
2023-01-17T14:00:21.724Z,3.35
2023-01-17T14:02:52.922Z,4.05
2023-01-17T14:05:30.311Z,3.58
2023-01-17T14:08:03.037Z,4.75
2023-01-17T14:10:40.998Z,3.92
2023-01-17T14:13:39.356Z,6.70
2023-01-17T14:16:24.410Z,4.22
2023-01-17T14:18:52.702Z,4.68
2023-01-17T14:21:22.786Z,3.53
2023-01-17T14:24:06.146Z,3.00
2023-01-17T14:26:37.068Z,3.40
2023-01-17T14:29:41.502Z,2.17
2023-01-17T14:32:17.705Z,5.35
2023-01-17T14:34:49.745Z,2.75
2023-01-17T14:37:20.569Z,2.85
2023-01-17T14:39:49.411Z,2.80
2023-01-17T14:42:18.930Z,2.03
2023-01-17T14:44:47.474Z,4.85
2023-01-17T14:47:15.088Z,3.70
2023-01-17T14:49:44.322Z,3.92
2023-01-17T14:52:16.389Z,3.00
2023-01-17T14:54:49.170Z,3.15
2023-01-17T14:57:28.717Z,2.58
2023-01-17T15:00:35.131Z,3.97
2023-01-17T15:03:02.606Z,245.85
2023-01-17T15:05:30.355Z,376.58
2023-01-17T15:07:58.335Z,509.08
2023-01-17T15:10:32.705Z,83.30
2023-01-17T15:13:06.872Z,216.02
2023-01-17T15:15:38.531Z,183.68
2023-01-17T15:18:14.348Z,40.92
2023-01-17T15:20:50.955Z,29.27
2023-01-17T15:23:20.617Z,12.07
2023-01-17T15:25:48.916Z,12.07
2023-01-17T15:28:15.731Z,7.88
2023-01-17T15:31:01.345Z,7.60
2023-01-17T15:33:30.969Z,2.88
2023-01-17T15:36:02.180Z,7.13
2023-01-17T15:38:38.266Z,3.97
2023-01-17T15:41:09.544Z,2.08
2023-01-17T15:43:36.544Z,2.83
2023-01-17T15:46:05.056Z,4.78
2023-01-17T15:48:43.432Z,4.70
2023-01-17T15:51:12.580Z,6.00
2023-01-17T15:53:41.636Z,4.20
2023-01-17T15:56:31.950Z,5.22
2023-01-17T15:59:21.876Z,7.10
2023-01-17T16:01:56.082Z,3.00
2023-01-17T16:04:34.083Z,6.32
2023-01-17T16:07:22.117Z,4.05
2023-01-17T16:09:49.241Z,3.17
2023-01-17T16:12:17.102Z,3.35
2023-01-17T16:14:59.519Z,2.58
2023-01-17T16:17:31.880Z,1.40
2023-01-17T16:19:59.072Z,2.22
2023-01-17T16:22:27.055Z,3.28
2023-01-17T16:24:56.758Z,4.18
2023-01-17T16:27:23.579Z,4.53
2023-01-17T16:29:50.191Z,6.32
2023-01-17T16:32:16.907Z,5.45
2023-01-17T16:34:44.467Z,4.55
2023-01-17T16:37:11.424Z,3.67
2023-01-17T16:39:38.655Z,3.97
2023-01-17T16:42:05.377Z,4.13
2023-01-17T16:44:33.618Z,4.25
2023-01-17T16:47:01.385Z,2.05
2023-01-17T16:49:29.377Z,5.45
2023-01-17T16:51:56.021Z,5.70
2023-01-17T16:54:23.124Z,6.85
2023-01-17T16:56:49.990Z,6.22
2023-01-17T16:59:17.127Z,5.53
2023-01-17T17:01:45.632Z,4.07
2023-01-17T17:04:13.217Z,6.25
2023-01-17T17:06:40.029Z,4.80
2023-01-17T17:09:06.866Z,2.47
2023-01-17T17:11:33.730Z,5.90
2023-01-17T17:14:00.507Z,5.25
2023-01-17T17:16:30.120Z,5.25
2023-01-17T17:18:59.672Z,3.63
2023-01-17T17:21:28.881Z,8.73
2023-01-17T17:23:58.213Z,6.15
2023-01-17T17:26:29.095Z,5.88
2023-01-17T17:28:55.992Z,5.88
2023-01-17T17:31:22.921Z,7.70
2023-01-17T17:33:49.902Z,6.28
2023-01-17T17:36:18.296Z,14.40
2023-01-17T17:38:50.985Z,23.30
2023-01-17T17:41:20.199Z,31.73
2023-01-17T17:43:47.115Z,37.47
2023-01-17T17:46:14.461Z,32.70
2023-01-17T17:48:41.254Z,33.47
2023-01-17T17:51:08.034Z,28.48
2023-01-17T17:53:35.755Z,24.35
2023-01-17T17:56:04.524Z,20.70
2023-01-17T17:58:33.022Z,18.30
2023-01-17T18:01:04.749Z,19.90
2023-01-17T18:03:31.554Z,16.25
2023-01-17T18:06:06.966Z,17.05
2023-01-17T18:08:34.800Z,14.23
2023-01-17T18:11:03.472Z,15.75
2023-01-17T18:13:31.255Z,19.88
2023-01-17T18:16:07.856Z,21.50
2023-01-17T18:18:40.066Z,17.65
2023-01-17T18:21:15.573Z,17.90
2023-01-17T18:23:45.195Z,18.45
2023-01-17T18:26:35.322Z,17.38
2023-01-17T18:29:05.752Z,16.25
2023-01-17T18:31:32.852Z,14.30
2023-01-17T18:34:03.295Z,16.20
2023-01-17T18:36:30.140Z,13.95
2023-01-17T18:38:58.034Z,17.50
2023-01-17T18:41:27.081Z,14.07
2023-01-17T18:43:56.152Z,16.90
2023-01-17T18:46:23.455Z,11.88
2023-01-17T18:48:55.782Z,11.88
2023-01-17T18:51:22.483Z,11.02
2023-01-17T18:53:49.358Z,9.95
2023-01-17T18:56:18.666Z,7.43
2023-01-17T18:58:47.278Z,9.90
2023-01-17T19:01:23.107Z,9.63
2023-01-17T19:03:51.383Z,11.27
2023-01-17T19:06:21.077Z,10.23
2023-01-17T19:08:49.508Z,8.82
2023-01-17T19:11:16.150Z,8.23
2023-01-17T19:13:42.868Z,9.75
2023-01-17T19:16:20.043Z,10.20
2023-01-17T19:18:47.597Z,8.82
2023-01-17T19:21:16.436Z,8.00
2023-01-17T19:23:43.761Z,7.72
2023-01-17T19:26:11.796Z,6.68
2023-01-17T19:28:40.583Z,6.85
2023-01-17T19:31:09.323Z,7.47
2023-01-17T19:33:40.747Z,9.50
2023-01-17T19:36:09.963Z,11.75
2023-01-17T19:38:37.402Z,10.75
2023-01-17T19:41:13.377Z,10.45
2023-01-17T19:43:42.109Z,11.30
2023-01-17T19:46:11.558Z,15.45
2023-01-17T19:48:39.246Z,18.00
2023-01-17T19:51:14.056Z,22.88
2023-01-17T19:53:41.600Z,19.25
2023-01-17T19:56:10.857Z,12.05
2023-01-17T19:58:38.102Z,11.90
2023-01-17T20:01:06.701Z,12.85
2023-01-17T20:03:33.467Z,12.10
2023-01-17T20:06:00.161Z,14.77
2023-01-17T20:08:26.839Z,19.23
2023-01-17T20:10:53.598Z,15.57
2023-01-17T20:13:20.801Z,17.92
2023-01-17T20:15:47.899Z,17.35
2023-01-17T20:18:17.885Z,18.40
2023-01-17T20:20:56.568Z,14.27
2023-01-17T20:23:23.861Z,13.05
2023-01-17T20:25:59.217Z,14.02
2023-01-17T20:28:27.330Z,13.40
2023-01-17T20:30:55.323Z,15.65
2023-01-17T20:33:23.391Z,11.43
2023-01-17T20:36:04.893Z,10.70
2023-01-17T20:38:45.249Z,9.70
2023-01-17T20:41:31.659Z,9.32
2023-01-17T20:44:00.119Z,10.48
2023-01-17T20:46:29.596Z,9.20
2023-01-17T20:48:58.132Z,8.35
2023-01-17T20:51:27.135Z,9.68
2023-01-17T20:53:59.821Z,11.02
2023-01-17T20:56:27.197Z,11.30
2023-01-17T20:58:54.741Z,12.38
2023-01-17T21:01:23.344Z,12.35
2023-01-17T21:03:53.280Z,10.93
2023-01-17T21:06:21.713Z,12.77
2023-01-17T21:08:48.857Z,10.93
2023-01-17T21:11:19.059Z,10.43
2023-01-17T21:13:45.847Z,10.30
2023-01-17T21:16:14.380Z,15.43
2023-01-17T21:18:41.522Z,64.03
2023-01-17T21:21:14.127Z,138.15
2023-01-17T21:23:41.978Z,169.10
2023-01-17T21:26:12.216Z,216.43
2023-01-17T21:28:41.077Z,185.63
2023-01-17T21:31:26.341Z,154.48
2023-01-17T21:34:04.094Z,143.38
2023-01-17T21:36:35.445Z,131.02
2023-01-17T21:39:04.926Z,116.88
2023-01-17T21:41:36.591Z,83.13
2023-01-17T21:44:10.885Z,75.10
2023-01-17T21:46:39.155Z,57.47
2023-01-17T21:49:07.115Z,56.00
2023-01-17T21:51:52.691Z,51.63
2023-01-17T21:54:44.258Z,45.42
2023-01-17T21:57:31.363Z,44.30
2023-01-17T21:59:59.087Z,43.28
2023-01-17T22:02:26.235Z,41.97
2023-01-17T22:04:54.743Z,41.13
2023-01-17T22:07:21.551Z,36.08
2023-01-17T22:09:48.359Z,38.47
2023-01-17T22:12:15.164Z,31.10
2023-01-17T22:14:41.937Z,27.15
2023-01-17T22:17:08.912Z,21.30
2023-01-17T22:19:35.578Z,22.48
2023-01-17T22:22:02.677Z,22.70
2023-01-17T22:24:29.520Z,20.48
2023-01-17T22:26:56.283Z,19.75
2023-01-17T22:29:23.025Z,22.75
2023-01-17T22:31:49.670Z,24.00
2023-01-17T22:34:16.435Z,20.60
2023-01-17T22:36:43.162Z,21.33
2023-01-17T22:39:10.330Z,23.50
2023-01-17T22:41:38.168Z,26.00
2023-01-17T22:44:08.618Z,23.02
2023-01-17T22:46:39.369Z,20.63
2023-01-17T22:49:08.425Z,22.85
2023-01-17T22:51:35.562Z,20.95
2023-01-17T22:54:02.557Z,20.13
2023-01-17T22:56:32.257Z,20.40
2023-01-17T22:59:00.893Z,20.33
2023-01-17T23:01:29.785Z,17.52
2023-01-17T23:03:59.146Z,16.13
2023-01-17T23:06:37.353Z,15.77
2023-01-17T23:09:10.622Z,15.63
2023-01-17T23:11:45.091Z,13.23
2023-01-17T23:14:17.538Z,15.38
2023-01-17T23:17:06.510Z,11.55
2023-01-17T23:19:43.746Z,13.35
2023-01-17T23:22:16.890Z,10.07
2023-01-17T23:24:52.063Z,12.48
2023-01-17T23:27:52.823Z,12.85
2023-01-17T23:30:30.314Z,16.95
2023-01-17T23:33:00.905Z,12.10
2023-01-17T23:35:29.779Z,14.07
2023-01-17T23:38:15.621Z,10.80
2023-01-17T23:40:42.634Z,12.15
2023-01-17T23:43:25.532Z,10.15
2023-01-17T23:45:53.345Z,12.77
2023-01-17T23:48:21.294Z,10.73
2023-01-17T23:50:48.678Z,12.60
2023-01-17T23:53:23.282Z,10.48
2023-01-17T23:55:51.856Z,10.93
2023-01-17T23:58:19.782Z,9.20
